Time;durP1;ratioP1;P1;durP2;ratioP2;P2;SDS_P1;SDS_P2;PMS_P1;PMS_P2;Temp;Humidity;BMP_temperature;BMP_pressure;BME280_temperature;BME280_humidity;BME280_pressure;Samples;Min_cycle;Max_cycle;Signal;HPM_P1;HPM_P2
2022/11/22 00:03:16;;;;;;;7.25;1.40;;;6.40;99.90;;;;;;7328626;32;20138;-58
2022/11/22 00:07:17;;;;;;;6.30;1.35;;;6.40;99.90;;;;;;7331219;32;20178;-58
2022/11/22 00:11:19;;;;;;;4.47;1.33;;;6.40;99.90;;;;;;7330187;32;20218;-58
2022/11/22 00:15:21;;;;;;;8.63;2.20;;;6.30;99.90;;;;;;7327611;32;20216;-58
2022/11/22 00:19:23;;;;;;;7.12;1.27;;;6.20;99.90;;;;;;7332826;32;20118;-59
2022/11/22 00:23:24;;;;;;;5.37;1.52;;;6.20;99.90;;;;;;7325734;32;20479;-59
2022/11/22 00:27:26;;;;;;;9.23;1.50;;;6.20;99.90;;;;;;7328518;32;20516;-59
2022/11/22 00:31:28;;;;;;;8.38;1.73;;;6.10;99.90;;;;;;7329374;32;20096;-59
2022/11/22 00:35:29;;;;;;;5.20;1.25;;;6.10;99.90;;;;;;7330887;32;20122;-60
2022/11/22 00:39:31;;;;;;;7.30;1.55;;;6.20;99.90;;;;;;7332090;32;20099;-59
2022/11/22 00:43:33;;;;;;;4.28;1.35;;;6.20;99.90;;;;;;7330809;32;20119;-59
2022/11/22 00:47:35;;;;;;;5.65;2.12;;;6.20;99.90;;;;;;7324971;32;20115;-58
2022/11/22 00:51:37;;;;;;;5.22;1.50;;;6.20;99.90;;;;;;7330135;32;20207;-60
2022/11/22 00:55:39;;;;;;;6.43;1.75;;;6.30;99.90;;;;;;7330603;32;20623;-58
2022/11/22 00:59:40;;;;;;;4.95;1.60;;;6.20;99.90;;;;;;7335844;32;20122;-60
2022/11/22 01:03:42;;;;;;;8.52;1.73;;;6.30;99.90;;;;;;7334765;32;20222;-60
2022/11/22 01:07:44;;;;;;;6.47;1.87;;;6.20;99.90;;;;;;7334024;32;20464;-59
2022/11/22 01:11:46;;;;;;;6.00;1.90;;;6.20;99.90;;;;;;7334940;32;20099;-58
2022/11/22 01:15:48;;;;;;;6.85;1.60;;;6.20;99.90;;;;;;7333060;32;20122;-59
2022/11/22 01:19:49;;;;;;;5.12;1.58;;;6.10;99.90;;;;;;7333885;32;20231;-59
2022/11/22 01:23:51;;;;;;;5.93;2.03;;;6.10;99.90;;;;;;7334273;32;20107;-59
2022/11/22 01:27:53;;;;;;;4.45;1.77;;;6.10;99.90;;;;;;7333695;32;20127;-59
2022/11/22 01:31:54;;;;;;;4.30;1.73;;;6.10;99.90;;;;;;7334137;32;20099;-59
2022/11/22 01:35:57;;;;;;;5.00;1.87;;;6.10;99.90;;;;;;7334551;32;20520;-59
2022/11/22 01:39:58;;;;;;;5.60;1.80;;;6.10;99.90;;;;;;7336098;32;20100;-59
2022/11/22 01:44:24;;;;;;;7.40;2.10;;;6.20;99.90;;;;;;7334805;32;20194;-58
2022/11/22 01:48:37;;;;;;;5.53;2.10;;;6.10;99.90;;;;;;7326277;32;20201;-58
2022/11/22 01:52:39;;;;;;;5.78;2.22;;;6.20;99.90;;;;;;7334424;32;20107;-59
2022/11/22 01:56:45;;;;;;;5.32;2.03;;;6.20;99.90;;;;;;7334238;32;20463;-58
2022/11/22 02:00:48;;;;;;;8.48;2.17;;;6.20;99.90;;;;;;7332879;32;20134;-59
2022/11/22 02:04:52;;;;;;;7.15;2.30;;;6.30;99.90;;;;;;7333270;32;20190;-60
2022/11/22 02:09:00;;;;;;;10.32;2.55;;;6.30;99.90;;;;;;7330485;32;20195;-59
2022/11/22 02:13:03;;;;;;;7.95;2.15;;;6.20;99.90;;;;;;7329548;32;20460;-59
2022/11/22 02:17:05;;;;;;;8.43;2.50;;;6.30;99.90;;;;;;7330438;32;20483;-58
2022/11/22 02:21:07;;;;;;;7.12;2.53;;;6.30;99.90;;;;;;7333347;32;20096;-59
2022/11/22 02:25:25;;;;;;;12.25;3.15;;;6.30;99.90;;;;;;7331564;32;20122;-59
2022/11/22 02:29:29;;;;;;;9.20;2.45;;;6.30;99.90;;;;;;7333135;32;20108;-59
2022/11/22 02:33:31;;;;;;;5.68;2.17;;;6.20;99.90;;;;;;7327886;32;20194;-59
2022/11/22 02:37:33;;;;;;;5.00;2.17;;;6.10;99.90;;;;;;7331684;32;20107;-58
2022/11/22 02:41:36;;;;;;;9.40;2.92;;;6.00;99.90;;;;;;7325191;32;20151;-59
2022/11/22 02:45:38;;;;;;;5.12;2.08;;;6.00;99.90;;;;;;7332964;32;20459;-59
2022/11/22 02:49:41;;;;;;;5.70;2.60;;;6.00;99.90;;;;;;7326477;32;20577;-59
2022/11/22 02:53:44;;;;;;;6.53;2.85;;;6.10;99.90;;;;;;7333438;32;20725;-58
2022/11/22 02:57:46;;;;;;;10.43;2.45;;;6.10;99.90;;;;;;7328115;32;20104;-59
2022/11/22 03:01:48;;;;;;;8.77;2.67;;;6.20;99.90;;;;;;7328748;32;20134;-58
2022/11/22 03:05:49;;;;;;;8.73;2.30;;;6.10;99.90;;;;;;7328754;32;20111;-59
2022/11/22 03:09:51;;;;;;;6.32;2.30;;;6.00;99.90;;;;;;7324576;32;20145;-58
2022/11/22 03:13:53;;;;;;;9.70;1.95;;;5.90;99.90;;;;;;7332412;32;20130;-58
2022/11/22 03:17:59;;;;;;;7.62;2.28;;;5.80;99.90;;;;;;7320091;32;20528;-58
2022/11/22 03:22:01;;;;;;;8.65;2.00;;;5.80;99.90;;;;;;7332788;32;20135;-57
2022/11/22 03:26:10;;;;;;;8.18;1.83;;;5.70;99.90;;;;;;7331765;32;20136;-59
2022/11/22 03:30:12;;;;;;;6.00;1.85;;;5.70;99.90;;;;;;7331184;32;20161;-57
2022/11/22 03:34:14;;;;;;;9.60;2.10;;;5.70;99.90;;;;;;7333527;32;20205;-59
2022/11/22 03:38:16;;;;;;;7.32;1.70;;;5.60;99.90;;;;;;7331504;32;20137;-60
2022/11/22 03:42:17;;;;;;;7.15;2.17;;;5.60;99.90;;;;;;7334212;32;20112;-60
2022/11/22 03:46:23;;;;;;;8.25;2.08;;;5.50;99.90;;;;;;7330806;32;20123;-58
2022/11/22 03:50:24;;;;;;;7.43;2.65;;;5.40;99.90;;;;;;7328347;32;20891;-59
2022/11/22 03:54:26;;;;;;;9.82;2.50;;;5.40;99.90;;;;;;7333326;32;20558;-59
2022/11/22 03:58:28;;;;;;;10.27;1.98;;;5.20;99.90;;;;;;7329588;32;20218;-59
2022/11/22 04:02:30;;;;;;;8.23;2.20;;;5.30;99.90;;;;;;7332754;32;20210;-58
2022/11/22 04:06:31;;;;;;;7.18;2.10;;;5.30;99.90;;;;;;7330987;32;20665;-58
2022/11/22 04:10:33;;;;;;;9.82;2.15;;;5.30;99.90;;;;;;7329253;32;20809;-58
2022/11/22 04:18:55;;;;;;;8.35;1.90;;;5.30;99.90;;;;;;7330701;32;20138;-58
2022/11/22 04:22:58;;;;;;;7.70;1.52;;;5.30;99.90;;;;;;7331753;32;20099;-60
2022/11/22 04:27:00;;;;;;;9.75;2.25;;;5.20;99.90;;;;;;7328780;32;20205;-59
2022/11/22 04:35:22;;;;;;;14.70;2.22;;;5.10;99.90;;;;;;7335929;32;20127;-58
2022/11/22 04:39:23;;;;;;;13.75;2.20;;;5.00;99.90;;;;;;7334652;32;20206;-58
2022/11/22 04:47:57;;;;;;;8.60;2.28;;;5.00;99.90;;;;;;7336911;32;20601;-58
2022/11/22 04:56:19;;;;;;;13.98;2.12;;;5.00;99.90;;;;;;7331560;32;20590;-58
2022/11/22 05:00:21;;;;;;;10.18;2.05;;;5.00;99.90;;;;;;7334160;32;20112;-58
2022/11/22 05:04:23;;;;;;;14.05;2.25;;;5.00;99.90;;;;;;7335136;32;20108;-59
2022/11/22 05:08:24;;;;;;;9.00;2.45;;;5.00;99.90;;;;;;7330499;32;20226;-58
2022/11/22 05:12:26;;;;;;;9.27;2.00;;;4.90;99.90;;;;;;7337365;32;20119;-60
2022/11/22 05:16:27;;;;;;;7.53;1.95;;;4.80;99.90;;;;;;7337261;32;20130;-59
2022/11/22 05:20:29;;;;;;;9.50;2.72;;;4.80;99.90;;;;;;7328601;32;20178;-58
2022/11/22 05:24:31;;;;;;;11.52;2.50;;;4.80;99.90;;;;;;7319329;32;20103;-59
2022/11/22 05:28:34;;;;;;;8.38;1.77;;;4.80;99.90;;;;;;7332133;32;20149;-59
2022/11/22 05:32:36;;;;;;;10.32;2.08;;;4.90;99.90;;;;;;7326959;32;20151;-60
2022/11/22 05:36:38;;;;;;;9.40;2.17;;;4.80;99.90;;;;;;7330732;32;20140;-60
2022/11/22 05:40:39;;;;;;;8.85;2.33;;;4.80;99.90;;;;;;7324668;32;20096;-59
2022/11/22 05:44:41;;;;;;;10.98;1.98;;;4.90;99.90;;;;;;7337060;32;20111;-59
2022/11/22 05:48:45;;;;;;;9.25;1.90;;;4.80;99.90;;;;;;7335195;32;20116;-59
2022/11/22 05:52:46;;;;;;;11.30;1.92;;;4.80;99.90;;;;;;7332244;32;20715;-60
2022/11/22 05:56:48;;;;;;;6.30;2.45;;;4.70;99.90;;;;;;7329698;32;20474;-60
2022/11/22 06:00:49;;;;;;;10.57;2.08;;;4.80;99.90;;;;;;7332534;32;20338;-63
2022/11/22 06:04:51;;;;;;;9.82;2.33;;;4.80;99.90;;;;;;7318287;32;20149;-59
2022/11/22 06:08:53;;;;;;;15.07;5.53;;;4.70;99.90;;;;;;7331756;32;20238;-59
2022/11/22 06:12:55;;;;;;;9.57;2.58;;;4.60;99.90;;;;;;7334843;32;20549;-59
2022/11/22 06:16:56;;;;;;;12.05;2.12;;;4.50;99.90;;;;;;7332981;32;20260;-61
2022/11/22 06:21:04;;;;;;;12.90;2.30;;;4.50;99.90;;;;;;7331636;32;20516;-59
2022/11/22 06:25:06;;;;;;;10.13;1.95;;;4.40;99.90;;;;;;7326561;32;20519;-60
2022/11/22 06:29:08;;;;;;;9.20;1.90;;;4.30;99.90;;;;;;7330317;32;20153;-59
2022/11/22 06:33:10;;;;;;;8.70;2.10;;;4.30;99.90;;;;;;7325827;32;20186;-60
2022/11/22 06:37:15;;;;;;;14.10;2.12;;;4.40;99.90;;;;;;7325744;32;20558;-60
2022/11/22 06:41:25;;;;;;;12.02;2.40;;;4.30;99.90;;;;;;7329836;32;20127;-61
2022/11/22 06:45:26;;;;;;;14.68;2.47;;;4.30;99.90;;;;;;7326004;32;20657;-59
2022/11/22 06:49:28;;;;;;;10.15;2.90;;;4.30;99.90;;;;;;7333218;32;20110;-60
2022/11/22 06:53:32;;;;;;;11.80;3.00;;;4.30;99.90;;;;;;7332540;32;20582;-60
2022/11/22 06:57:50;;;;;;;17.10;3.17;;;4.40;99.90;;;;;;7330441;32;20112;-60
2022/11/22 07:01:52;;;;;;;13.27;3.00;;;4.40;99.90;;;;;;7329687;32;20116;-59
2022/11/22 07:05:54;;;;;;;13.85;2.65;;;4.50;99.90;;;;;;7329909;32;20257;-62
2022/11/22 07:09:56;;;;;;;12.73;2.28;;;4.60;99.90;;;;;;7332700;32;20112;-64
2022/11/22 07:13:59;;;;;;;14.45;2.35;;;4.60;99.90;;;;;;7324735;32;20108;-62
2022/11/22 07:18:08;;;;;;;11.95;2.45;;;4.70;99.90;;;;;;7329204;32;20484;-64
2022/11/22 07:22:10;;;;;;;16.87;2.40;;;4.80;99.90;;;;;;7321569;32;20186;-63
2022/11/22 07:26:13;;;;;;;11.45;2.20;;;4.80;99.90;;;;;;7325070;32;20232;-60
2022/11/22 07:30:15;;;;;;;10.27;1.98;;;4.90;99.90;;;;;;7325203;32;20149;-59
2022/11/22 07:34:16;;;;;;;18.48;2.25;;;4.90;99.90;;;;;;7331186;32;20218;-61
2022/11/22 07:38:18;;;;;;;14.80;2.33;;;4.90;99.90;;;;;;7332145;32;20108;-60
2022/11/22 07:42:20;;;;;;;13.75;2.28;;;5.00;99.90;;;;;;7329377;32;20213;-60
2022/11/22 07:46:29;;;;;;;8.80;1.85;;;5.00;99.90;;;;;;7330707;32;20203;-61
2022/11/22 07:50:32;;;;;;;14.20;1.85;;;5.00;99.90;;;;;;7332589;32;20123;-60
2022/11/22 07:54:34;;;;;;;13.73;1.87;;;5.10;99.90;;;;;;7333163;32;20103;-60
2022/11/22 07:58:36;;;;;;;9.43;1.98;;;5.10;99.90;;;;;;7329402;32;20462;-62
2022/11/22 08:02:38;;;;;;;9.30;1.83;;;5.20;99.90;;;;;;7325235;32;20500;-62
2022/11/22 08:06:39;;;;;;;9.85;1.75;;;5.10;99.90;;;;;;7316690;32;20087;-60
2022/11/22 08:10:42;;;;;;;10.25;1.70;;;5.10;99.90;;;;;;7333137;32;20149;-61
2022/11/22 08:14:44;;;;;;;14.60;2.53;;;5.20;99.90;;;;;;7335715;32;20145;-61
2022/11/22 08:18:47;;;;;;;12.93;2.20;;;5.30;99.90;;;;;;7335473;32;20516;-62
2022/11/22 08:22:49;;;;;;;11.80;2.37;;;5.30;99.90;;;;;;7331030;32;20455;-62
2022/11/22 08:26:51;;;;;;;12.65;2.85;;;5.40;99.90;;;;;;7336805;32;20525;-61
2022/11/22 08:31:07;;;;;;;8.70;1.52;;;5.50;99.90;;;;;;7330748;32;20131;-61
2022/11/22 08:35:08;;;;;;;7.78;1.37;;;5.60;99.90;;;;;;7318390;32;20096;-62
2022/11/22 08:39:10;;;;;;;14.10;1.60;;;5.70;99.90;;;;;;7326210;32;20191;-62
2022/11/22 08:43:12;;;;;;;10.15;1.40;;;5.60;99.90;;;;;;7339783;32;20107;-61
2022/11/22 08:47:13;;;;;;;12.00;1.73;;;5.70;99.90;;;;;;7340316;32;20100;-61
2022/11/22 08:51:15;;;;;;;10.35;1.92;;;5.90;99.90;;;;;;7336075;32;20150;-61
2022/11/22 08:55:17;;;;;;;10.48;1.40;;;5.90;99.90;;;;;;7339911;32;20531;-61
2022/11/22 08:59:18;;;;;;;5.80;1.37;;;6.00;99.90;;;;;;7338639;32;20117;-61
2022/11/22 09:03:20;;;;;;;9.35;1.45;;;6.20;99.90;;;;;;7335396;32;20312;-61
2022/11/22 09:07:22;;;;;;;8.13;1.50;;;6.50;99.90;;;;;;7322997;32;20437;-61
2022/11/22 09:11:43;;;;;;;7.80;1.40;;;6.50;99.90;;;;;;7332710;32;20110;-62
2022/11/22 09:15:45;;;;;;;8.60;1.65;;;6.50;99.90;;;;;;7339135;32;20108;-62
2022/11/22 09:19:47;;;;;;;12.13;1.60;;;6.50;99.90;;;;;;7337454;32;20621;-63
2022/11/22 09:23:50;;;;;;;7.75;1.15;;;6.50;99.90;;;;;;7338527;32;20141;-62
2022/11/22 09:27:52;;;;;;;8.35;1.67;;;6.60;99.90;;;;;;7319192;32;20187;-61
2022/11/22 09:31:54;;;;;;;12.82;1.50;;;6.80;99.90;;;;;;7331265;32;20602;-61
2022/11/22 09:36:08;;;;;;;6.15;1.27;;;6.90;99.90;;;;;;7335269;32;20612;-64
2022/11/22 09:40:10;;;;;;;9.43;1.33;;;7.10;99.90;;;;;;7330196;32;20214;-61
2022/11/22 09:44:39;;;;;;;9.90;1.73;;;7.30;99.90;;;;;;7328567;32;20104;-60
2022/11/22 09:48:52;;;;;;;9.95;1.27;;;7.30;99.90;;;;;;7330171;32;20201;-62
2022/11/22 09:53:07;;;;;;;7.03;1.17;;;7.30;99.90;;;;;;7330980;32;20103;-60
2022/11/22 09:57:16;;;;;;;11.10;1.50;;;7.20;99.90;;;;;;7334951;32;20104;-61
2022/11/22 10:01:43;;;;;;;7.18;1.12;;;7.20;99.90;;;;;;7326976;32;20122;-61
2022/11/22 10:05:55;;;;;;;7.22;1.10;;;7.20;99.90;;;;;;7330146;32;20126;-61
2022/11/22 10:10:13;;;;;;;8.75;1.15;;;7.20;99.90;;;;;;7332932;32;20848;-65
2022/11/22 10:14:36;;;;;;;7.40;1.65;;;7.20;99.90;;;;;;7329173;32;20758;-61
2022/11/22 10:19:01;;;;;;;6.03;0.90;;;7.30;99.90;;;;;;7330744;32;20141;-62
2022/11/22 10:23:13;;;;;;;7.80;1.15;;;7.30;99.90;;;;;;7332848;32;20139;-61
2022/11/22 10:27:15;;;;;;;6.22;1.30;;;7.40;99.90;;;;;;7333360;32;20475;-60
2022/11/22 10:31:24;;;;;;;4.93;0.93;;;7.50;99.90;;;;;;7326882;32;20129;-61
2022/11/22 10:35:57;;;;;;;7.95;0.90;;;7.40;99.90;;;;;;7333637;32;20103;-61
2022/11/22 10:40:14;;;;;;;4.85;0.75;;;7.30;99.90;;;;;;7328512;32;20866;-60
2022/11/22 10:44:28;;;;;;;6.93;1.37;;;7.30;99.90;;;;;;7333472;32;20440;-62
2022/11/22 10:48:58;;;;;;;7.18;1.02;;;7.30;99.90;;;;;;7326960;32;20091;-61
2022/11/22 10:53:15;;;;;;;4.93;0.90;;;7.30;99.90;;;;;;7331043;32;21023;-63
2022/11/22 10:57:17;;;;;;;6.47;0.77;;;7.40;99.90;;;;;;7321562;32;20786;-61
2022/11/22 11:01:31;;;;;;;6.28;0.75;;;7.50;99.90;;;;;;7331342;32;20138;-61
2022/11/22 11:06:08;;;;;;;7.62;1.10;;;7.60;99.90;;;;;;7327784;32;20230;-62
2022/11/22 11:10:35;;;;;;;7.20;0.77;;;7.80;99.90;;;;;;7318038;32;20122;-61
2022/11/22 11:14:46;;;;;;;5.60;0.90;;;7.90;99.90;;;;;;7323967;32;20194;-61
2022/11/22 11:19:07;;;;;;;4.22;0.60;;;8.00;99.90;;;;;;7326722;32;20191;-61
2022/11/22 11:23:11;;;;;;;1.92;0.47;;;8.00;99.90;;;;;;7328673;32;20468;-61
2022/11/22 11:27:18;;;;;;;4.50;0.82;;;8.00;99.90;;;;;;7332877;32;20107;-60
2022/11/22 11:31:20;;;;;;;1.95;0.47;;;8.00;99.90;;;;;;7329293;32;20095;-61
2022/11/22 11:35:26;;;;;;;2.65;0.88;;;8.00;99.90;;;;;;7327479;32;20210;-61
2022/11/22 11:39:32;;;;;;;4.15;0.85;;;8.00;99.90;;;;;;7331941;32;20135;-62
2022/11/22 11:43:41;;;;;;;8.15;0.95;;;8.00;99.90;;;;;;7331546;32;20108;-60
2022/11/22 11:47:43;;;;;;;3.08;0.70;;;7.90;99.90;;;;;;7330462;32;20111;-61
2022/11/22 11:51:56;;;;;;;5.57;0.90;;;8.00;99.90;;;;;;7325808;32;20145;-61
2022/11/22 11:56:27;;;;;;;4.62;1.08;;;8.20;99.90;;;;;;7332230;32;20252;-61
2022/11/22 12:00:37;;;;;;;3.22;0.70;;;8.30;99.90;;;;;;7323254;32;20852;-61
2022/11/22 12:04:55;;;;;;;4.55;0.80;;;8.50;99.90;;;;;;7324587;32;20459;-61
2022/11/22 12:08:58;;;;;;;1.87;0.50;;;8.60;99.90;;;;;;7327463;32;20487;-62
2022/11/22 12:13:16;;;;;;;3.05;0.43;;;8.70;99.90;;;;;;7320360;32;20103;-61
2022/11/22 12:17:26;;;;;;;2.03;0.50;;;8.80;99.90;;;;;;7324754;32;20099;-62
2022/11/22 12:21:57;;;;;;;1.80;0.50;;;8.80;99.90;;;;;;7327734;32;20100;-62
2022/11/22 12:25:59;;;;;;;1.05;0.30;;;8.70;99.90;;;;;;7329764;32;20099;-64
2022/11/22 12:30:01;;;;;;;3.00;0.50;;;8.80;99.90;;;;;;7324888;32;20195;-60
2022/11/22 12:34:23;;;;;;;2.08;0.40;;;9.00;99.90;;;;;;7331372;32;20128;-60
2022/11/22 12:38:32;;;;;;;1.12;0.35;;;9.00;99.90;;;;;;7315153;32;20100;-61
2022/11/22 12:42:45;;;;;;;3.80;0.50;;;9.10;99.90;;;;;;7331074;32;20103;-61
2022/11/22 12:46:56;;;;;;;3.37;0.68;;;9.00;99.90;;;;;;7330024;32;20232;-63
2022/11/22 12:51:39;;;;;;;4.57;0.73;;;8.90;99.90;;;;;;7329836;32;20107;-63
2022/11/22 12:55:57;;;;;;;2.75;0.40;;;9.00;99.90;;;;;;7334969;32;20187;-61
2022/11/22 13:00:21;;;;;;;1.65;0.43;;;8.90;99.90;;;;;;7338054;32;20121;-62
2022/11/22 13:04:36;;;;;;;2.80;0.50;;;8.90;99.90;;;;;;7331418;32;20470;-62
2022/11/22 13:08:46;;;;;;;3.50;0.30;;;8.90;99.90;;;;;;7335753;32;20175;-63
2022/11/22 13:12:57;;;;;;;3.58;0.40;;;8.80;99.90;;;;;;7329961;32;20124;-61
2022/11/22 13:17:05;;;;;;;1.25;0.60;;;8.80;99.90;;;;;;7332860;32;20515;-61
2022/11/22 13:21:31;;;;;;;1.30;0.40;;;8.80;99.90;;;;;;7332759;32;20914;-62
2022/11/22 13:26:15;;;;;;;3.08;0.70;;;8.70;99.90;;;;;;7330899;32;20108;-63
2022/11/22 13:30:18;;;;;;;1.35;0.32;;;8.60;99.90;;;;;;7333354;32;20134;-60
2022/11/22 13:34:25;;;;;;;2.05;0.50;;;8.60;99.90;;;;;;7334040;32;20169;-61
2022/11/22 13:38:27;;;;;;;1.60;0.65;;;8.70;99.90;;;;;;7335842;32;20118;-63
2022/11/22 13:42:29;;;;;;;3.03;0.70;;;8.70;99.90;;;;;;7330656;32;21310;-61
2022/11/22 13:46:59;;;;;;;4.43;0.50;;;8.60;99.90;;;;;;7330553;32;20182;-59
2022/11/22 13:51:02;;;;;;;3.00;0.90;;;8.50;99.90;;;;;;7331543;32;20281;-60
2022/11/22 13:55:26;;;;;;;3.10;0.50;;;8.60;99.90;;;;;;7334973;32;20100;-57
2022/11/22 13:59:27;;;;;;;1.85;0.50;;;8.60;99.90;;;;;;7334137;32;20118;-57
2022/11/22 14:03:39;;;;;;;3.87;0.70;;;8.60;99.90;;;;;;7331216;32;20107;-62
2022/11/22 14:07:41;;;;;;;5.80;0.73;;;8.40;99.90;;;;;;7330453;32;20199;-62
2022/11/22 14:12:00;;;;;;;2.67;0.57;;;8.40;99.90;;;;;;7328627;32;20104;-62
2022/11/22 14:16:10;;;;;;;3.67;0.82;;;8.40;99.90;;;;;;7330246;32;20194;-62
2022/11/22 14:20:43;;;;;;;4.65;0.95;;;8.40;99.90;;;;;;7333732;32;20273;-63
2022/11/22 14:25:23;;;;;;;2.72;0.82;;;8.40;99.90;;;;;;7331329;32;20114;-62
2022/11/22 14:29:42;;;;;;;1.37;0.50;;;8.40;99.90;;;;;;7293003;32;21060;-62
2022/11/22 14:34:21;;;;;;;2.83;0.60;;;8.40;99.90;;;;;;7327946;32;20135;-62
2022/11/22 14:38:23;;;;;;;1.77;0.40;;;8.40;99.90;;;;;;7330389;32;20194;-62
2022/11/22 14:42:39;;;;;;;3.42;0.43;;;8.50;99.90;;;;;;7327009;32;20549;-61
2022/11/22 14:46:47;;;;;;;2.25;0.60;;;8.40;99.90;;;;;;7331708;32;20112;-60
2022/11/22 14:51:13;;;;;;;0.73;0.30;;;8.50;99.90;;;;;;7331376;32;20125;-62
2022/11/22 14:55:18;;;;;;;0.73;0.40;;;8.40;99.90;;;;;;7330565;32;20182;-62
2022/11/22 14:59:58;;;;;;;0.40;0.20;;;8.40;99.90;;;;;;7329243;32;20516;-62
2022/11/22 15:04:22;;;;;;;0.93;0.20;;;8.40;99.90;;;;;;7331860;32;20511;-61
2022/11/22 15:08:53;;;;;;;0.50;0.20;;;8.40;99.90;;;;;;7327118;32;20139;-61
2022/11/22 15:13:44;;;;;;;0.40;0.10;;;8.50;99.90;;;;;;7329367;32;20118;-62
2022/11/22 15:17:49;;;;;;;1.65;0.20;;;8.50;99.90;;;;;;7330730;32;20179;-62
2022/11/22 15:22:19;;;;;;;0.85;0.30;;;8.40;99.90;;;;;;7330559;32;20103;-58
2022/11/22 15:26:45;;;;;;;0.70;0.20;;;8.50;99.90;;;;;;7327174;32;20202;-61
2022/11/22 15:31:12;;;;;;;1.15;0.30;;;8.50;99.90;;;;;;7324009;32;20103;-60
2022/11/22 15:35:51;;;;;;;1.48;0.40;;;8.40;99.90;;;;;;7323260;32;20111;-58
2022/11/22 15:40:20;;;;;;;0.98;0.30;;;8.50;99.90;;;;;;7330375;32;20095;-64
2022/11/22 15:44:42;;;;;;;0.57;0.28;;;8.40;99.90;;;;;;7330107;32;20624;-63
2022/11/22 15:49:04;;;;;;;1.08;0.17;;;8.40;99.90;;;;;;7332390;32;20134;-59
2022/11/22 15:53:28;;;;;;;0.50;0.30;;;8.30;99.90;;;;;;7329233;32;20130;-61
2022/11/22 15:57:53;;;;;;;0.90;0.30;;;8.30;99.90;;;;;;7316118;32;20107;-60
2022/11/22 16:01:58;;;;;;;1.15;0.30;;;8.20;99.90;;;;;;7330095;32;20099;-60
2022/11/22 16:06:03;;;;;;;0.30;0.20;;;8.10;99.90;;;;;;7322780;32;20118;-60
2022/11/22 16:10:38;;;;;;;0.82;0.30;;;8.10;99.90;;;;;;7330357;32;20206;-60
2022/11/22 16:14:48;;;;;;;1.15;0.40;;;8.20;99.90;;;;;;7329369;32;20181;-60
2022/11/22 16:18:52;;;;;;;0.75;0.20;;;8.20;99.90;;;;;;7329197;32;20095;-60
2022/11/22 16:23:08;;;;;;;1.08;0.32;;;8.10;99.90;;;;;;7330949;32;20245;-60
2022/11/22 16:27:14;;;;;;;0.50;0.30;;;8.20;99.90;;;;;;7329513;32;20187;-61
2022/11/22 16:31:20;;;;;;;1.27;0.30;;;8.20;99.90;;;;;;7335710;32;20127;-61
2022/11/22 16:35:22;;;;;;;0.65;0.30;;;8.10;99.90;;;;;;7333388;32;20271;-61
2022/11/22 16:39:32;;;;;;;1.00;0.40;;;8.10;99.90;;;;;;7336215;32;20099;-61
2022/11/22 16:43:34;;;;;;;0.60;0.35;;;8.10;99.90;;;;;;7334355;32;20872;-61
2022/11/22 16:47:36;;;;;;;1.17;0.40;;;8.10;99.90;;;;;;7323326;32;20428;-60
2022/11/22 16:51:43;;;;;;;0.30;0.20;;;8.10;99.90;;;;;;7333441;32;20218;-59
2022/11/22 16:55:44;;;;;;;;;;;8.00;99.90;;;;;;7330456;32;20095;-59
2022/11/22 16:59:46;;;;;;;0.75;0.20;;;7.90;99.90;;;;;;7335062;32;20015;-60
2022/11/22 17:03:50;;;;;;;0.75;0.35;;;7.90;99.90;;;;;;7333366;32;20127;-61
2022/11/22 17:07:51;;;;;;;0.40;0.20;;;7.90;99.90;;;;;;7332023;32;20170;-60
2022/11/22 17:11:53;;;;;;;0.75;0.28;;;7.80;99.90;;;;;;7337007;32;20141;-60
2022/11/22 17:15:56;;;;;;;0.32;0.20;;;7.90;99.90;;;;;;7334422;32;20191;-60
2022/11/22 17:19:58;;;;;;;2.78;0.40;;;7.80;99.90;;;;;;7336092;32;20140;-61
2022/11/22 17:24:05;;;;;;;0.47;0.30;;;7.60;99.90;;;;;;7332315;32;20108;-58
2022/11/22 17:28:07;;;;;;;;;;;7.60;99.90;;;;;;7324888;32;20195;-59
2022/11/22 17:32:12;;;;;;;1.50;0.30;;;7.60;99.90;;;;;;7332743;32;20007;-59
2022/11/22 17:36:34;;;;;;;1.02;0.40;;;7.50;99.90;;;;;;7328887;32;20546;-59
2022/11/22 17:40:36;;;;;;;0.75;0.30;;;7.50;99.90;;;;;;7325887;32;20466;-58
2022/11/22 17:44:37;;;;;;;1.80;0.50;;;7.50;99.90;;;;;;7331766;32;20471;-59
2022/11/22 17:48:39;;;;;;;2.87;0.55;;;7.50;99.90;;;;;;7331978;32;20103;-59
2022/11/22 17:52:41;;;;;;;3.92;0.32;;;7.40;99.90;;;;;;7331916;32;20095;-59
2022/11/22 17:56:42;;;;;;;0.70;0.40;;;7.40;99.90;;;;;;7324149;32;20560;-59
2022/11/22 18:00:44;;;;;;;0.90;0.50;;;7.40;99.90;;;;;;7332042;32;20507;-61
2022/11/22 18:04:46;;;;;;;2.37;1.25;;;7.40;99.90;;;;;;7327184;32;20096;-59
2022/11/22 18:08:48;;;;;;;0.90;0.55;;;7.40;99.90;;;;;;7329595;32;20175;-60
2022/11/22 18:12:54;;;;;;;1.90;0.90;;;7.30;99.90;;;;;;7334039;32;20485;-59
2022/11/22 18:17:16;;;;;;;1.00;0.52;;;7.40;99.90;;;;;;7331299;32;20528;-59
2022/11/22 18:21:18;;;;;;;0.93;0.52;;;7.30;99.90;;;;;;7328303;32;20211;-59
2022/11/22 18:25:20;;;;;;;1.35;0.70;;;7.40;99.90;;;;;;7329550;32;20141;-59
2022/11/22 18:29:21;;;;;;;1.12;0.70;;;7.20;99.90;;;;;;7334653;32;20413;-60
2022/11/22 18:33:43;;;;;;;1.83;0.70;;;7.30;99.90;;;;;;7331642;32;20141;-59
2022/11/22 18:37:45;;;;;;;0.95;0.70;;;7.30;99.90;;;;;;7329778;32;20107;-59
2022/11/22 18:41:47;;;;;;;1.00;0.70;;;7.30;99.90;;;;;;7327801;32;20104;-59
2022/11/22 18:45:48;;;;;;;2.53;0.88;;;7.30;99.90;;;;;;7334974;32;20130;-60
2022/11/22 18:49:50;;;;;;;2.25;0.70;;;7.30;99.90;;;;;;7334724;32;20108;-60
2022/11/22 18:53:52;;;;;;;1.90;0.80;;;7.30;99.90;;;;;;7333860;32;20779;-59
2022/11/22 18:57:53;;;;;;;2.17;0.85;;;7.20;99.90;;;;;;7335360;32;20609;-59
2022/11/22 19:01:55;;;;;;;1.50;0.60;;;7.20;99.90;;;;;;7328965;32;20198;-60
2022/11/22 19:05:57;;;;;;;1.25;0.68;;;7.20;99.90;;;;;;7327986;32;20539;-60
2022/11/22 19:10:01;;;;;;;1.10;0.80;;;7.20;99.90;;;;;;7329551;32;20532;-61
2022/11/22 19:14:03;;;;;;;2.95;1.20;;;7.10;99.90;;;;;;7331468;32;20202;-60
2022/11/22 19:18:08;;;;;;;2.20;1.40;;;7.10;99.90;;;;;;7314385;32;20130;-61
2022/11/22 19:22:09;;;;;;;2.45;1.27;;;7.20;99.90;;;;;;7328244;32;20126;-61
2022/11/22 19:26:19;;;;;;;2.25;1.15;;;7.20;99.90;;;;;;7332388;32;20193;-60
2022/11/22 19:30:21;;;;;;;2.70;1.25;;;7.20;99.90;;;;;;7333001;32;20095;-61
2022/11/22 19:34:22;;;;;;;2.85;1.40;;;7.20;99.90;;;;;;7330309;32;20193;-60
2022/11/22 19:38:24;;;;;;;2.37;1.08;;;7.20;99.90;;;;;;7324235;32;20133;-60
2022/11/22 19:42:32;;;;;;;2.75;1.20;;;7.20;99.90;;;;;;7332460;32;20123;-61
2022/11/22 19:46:35;;;;;;;1.60;0.98;;;7.20;99.90;;;;;;7326924;32;20091;-61
2022/11/22 19:50:37;;;;;;;3.03;1.17;;;7.20;99.90;;;;;;7317573;32;20336;-60
2022/11/22 19:54:39;;;;;;;4.65;1.37;;;7.20;99.90;;;;;;7331856;32;20100;-60
2022/11/22 19:58:43;;;;;;;1.98;1.20;;;7.20;99.90;;;;;;7330410;32;20126;-61
2022/11/22 20:02:44;;;;;;;2.85;1.48;;;7.20;99.90;;;;;;7332522;32;20259;-61
2022/11/22 20:06:46;;;;;;;2.30;1.40;;;7.20;99.90;;;;;;7330958;32;20091;-62
2022/11/22 20:10:51;;;;;;;4.45;1.50;;;7.20;99.90;;;;;;7328156;32;20179;-60
2022/11/22 20:14:52;;;;;;;2.45;1.40;;;7.30;99.90;;;;;;7331249;32;20187;-59
2022/11/22 20:18:56;;;;;;;2.67;1.48;;;7.30;99.90;;;;;;7324368;32;20213;-60
2022/11/22 20:22:58;;;;;;;1.87;1.40;;;7.30;99.90;;;;;;7330413;32;20108;-59
2022/11/22 20:27:01;;;;;;;2.90;1.70;;;7.30;99.90;;;;;;7332166;32;20095;-59
2022/11/22 20:31:07;;;;;;;3.05;1.30;;;7.20;99.90;;;;;;7317806;32;20270;-60
2022/11/22 20:35:08;;;;;;;3.47;1.50;;;7.30;99.90;;;;;;7329807;32;20558;-61
2022/11/22 20:39:10;;;;;;;3.05;1.85;;;7.30;99.90;;;;;;7330037;32;20125;-61
2022/11/22 20:43:12;;;;;;;4.22;1.52;;;7.30;99.90;;;;;;7326312;32;20103;-61
2022/11/22 20:47:13;;;;;;;5.00;1.62;;;7.40;99.90;;;;;;7330691;32;20107;-60
2022/11/22 20:51:18;;;;;;;2.45;1.20;;;7.40;99.90;;;;;;7325394;32;20213;-61
2022/11/22 20:55:20;;;;;;;3.67;1.67;;;7.40;99.90;;;;;;7327008;32;20092;-61
2022/11/22 20:59:21;;;;;;;3.58;1.40;;;7.50;99.90;;;;;;7333825;32;20166;-60
2022/11/22 21:03:24;;;;;;;2.17;1.25;;;7.50;99.90;;;;;;7311672;32;20130;-60
2022/11/22 21:07:25;;;;;;;3.45;1.23;;;7.50;99.90;;;;;;7317982;32;20191;-60
2022/11/22 21:11:29;;;;;;;3.62;1.20;;;7.70;99.90;;;;;;7315722;32;20641;-61
2022/11/22 21:15:31;;;;;;;3.72;1.20;;;7.70;99.90;;;;;;7325244;32;20092;-60
2022/11/22 21:19:33;;;;;;;4.22;1.05;;;7.70;99.90;;;;;;7333515;32;20222;-60
2022/11/22 21:23:36;;;;;;;3.35;0.98;;;7.70;99.90;;;;;;7328044;32;20130;-60
2022/11/22 21:27:37;;;;;;;4.25;1.45;;;7.70;99.90;;;;;;7331471;32;20103;-60
2022/11/22 21:31:39;;;;;;;3.50;1.10;;;7.70;99.90;;;;;;7332033;32;20122;-60
2022/11/22 21:35:41;;;;;;;3.53;0.95;;;7.70;99.90;;;;;;7334173;32;20195;-60
2022/11/22 21:39:46;;;;;;;3.08;1.10;;;7.60;99.90;;;;;;7330811;32;20130;-60
2022/11/22 21:43:48;;;;;;;6.15;1.02;;;7.60;99.90;;;;;;7333122;32;20115;-60
2022/11/22 21:47:51;;;;;;;5.32;1.15;;;7.70;99.90;;;;;;7332273;32;20220;-60
2022/11/22 21:51:54;;;;;;;2.87;1.10;;;7.80;99.90;;;;;;7330521;32;20221;-60
2022/11/22 21:56:00;;;;;;;3.50;1.12;;;7.70;99.90;;;;;;7330604;32;20660;-60
2022/11/22 22:00:06;;;;;;;4.57;1.23;;;7.70;99.90;;;;;;7315553;32;20827;-60